Página principal
METAR-TAF:

METAR-TAF

Aeroportos :

Shageluk, Alasca, Estados Unidos

latitude: 62-41-32N, longitude: 159-34-09W, altura: 24 m

Observação actual do tempo

O boletim foi feito há 1 hora e 6 minutos, às 20:02 UTC
Vento 4 kt com direcção variável
Temperatura 23°C
Humidade 47%
Pressão 1014 hPa
Visibilidade: 16.1 km
Céu limpo

METAR: PAHX 172002Z AUTO VRB04KT 10SM CLR 23/11 A2993 RMK AO2 SLP134 T02280106

Hora: 13:08 (21:08 UTC)


TAF: em falta

Observações e previsões do tempo de mais de 4000 aeroportos (mensagens METAR e TAF).

As estações disponíveis são os pontos amarelos e vermelhos sobre o mapa.

Mova o rato sobre o mapa para ver o nome da estação.

Depois clique no ponto para visualizar as observações e previsões meteorológicas.

Para alterar o mapa : clique nos botões verdes com uma cruz preta para aumentar o zoom; no botão verde com uma pitada de zoom; ou nas setas verdes para mapas adjacentes.


METAR-TAF: